SAS1049 ESNU-ESSA
Flight info
| Callsign | SAS1049 |
|---|---|
| Flight time | N/A |
| Altitude | 36000 |
| Route | DEDIT DCT GALPI DCT BODRI DCT SIPRI N5 VACRA |
| Aircraft | A320/M-SDE3FGHIJ1RWXYZ/ALB1 |
Departure
| Time | 2026-04-15 09:13 |
|---|---|
| Airport | Umeå Airport (ESNU) |
Arrival
| Time | N/A |
|---|---|
| Airport | Stockholm-Arlanda Airport (ESSA) |
| Time | Latitude | Longitude | Altitude | Speed | Heading |
|---|---|---|---|---|---|
| 2026-04-15 08:52 | 63.79218 | 20.28977 | 27 ft | 0 kts | 48° |
| 2026-04-15 09:06 | 63.79206 | 20.28948 | 27 ft | 4 kts | 38° |
| 2026-04-15 09:07 | 63.79183 | 20.28922 | 27 ft | 4 kts | 1° |
| 2026-04-15 09:07 | 63.79161 | 20.28937 | 27 ft | 3 kts | 312° |
| 2026-04-15 09:07 | 63.79160 | 20.28941 | 27 ft | 0 kts | 311° |
| 2026-04-15 09:09 | 63.79163 | 20.28931 | 27 ft | 2 kts | 311° |
| 2026-04-15 09:09 | 63.79180 | 20.28887 | 27 ft | 5 kts | 311° |
| 2026-04-15 09:09 | 63.79211 | 20.28808 | 27 ft | 8 kts | 311° |
| 2026-04-15 09:10 | 63.79247 | 20.28681 | 27 ft | 11 kts | 277° |
| 2026-04-15 09:10 | 63.79202 | 20.28517 | 26 ft | 14 kts | 227° |
| 2026-04-15 09:10 | 63.79163 | 20.28317 | 27 ft | 15 kts | 300° |
| 2026-04-15 09:10 | 63.79246 | 20.28148 | 29 ft | 17 kts | 319° |
| 2026-04-15 09:11 | 63.79339 | 20.27967 | 31 ft | 19 kts | 319° |
| 2026-04-15 09:11 | 63.79442 | 20.27764 | 31 ft | 21 kts | 318° |
| 2026-04-15 09:11 | 63.79560 | 20.27525 | 30 ft | 24 kts | 318° |
| 2026-04-15 09:11 | 63.79670 | 20.27303 | 32 ft | 19 kts | 319° |
| 2026-04-15 09:12 | 63.79773 | 20.27140 | 34 ft | 18 kts | 325° |
| 2026-04-15 09:12 | 63.79841 | 20.27009 | 33 ft | 11 kts | 314° |
| 2026-04-15 09:12 | 63.79826 | 20.26984 | 33 ft | 4 kts | 131° |
| 2026-04-15 09:12 | 63.79810 | 20.27022 | 34 ft | 0 kts | 139° |
| 2026-04-15 09:13 | 63.79721 | 20.27200 | 33 ft | 52 kts | 139° |
| 2026-04-15 09:13 | 63.79268 | 20.28112 | 30 ft | 118 kts | 138° |
| 2026-04-15 09:13 | 63.78533 | 20.29599 | 137 ft | 154 kts | 138° |
| 2026-04-15 09:13 | 63.77750 | 20.31173 | 832 ft | 149 kts | 137° |
| 2026-04-15 09:14 | 63.76972 | 20.32694 | 1470 ft | 150 kts | 137° |
| 2026-04-15 09:14 | 63.76138 | 20.34350 | 1833 ft | 169 kts | 136° |
| 2026-04-15 09:14 | 63.75229 | 20.36244 | 2260 ft | 187 kts | 136° |
| 2026-04-15 09:14 | 63.74199 | 20.38303 | 2591 ft | 211 kts | 137° |
| 2026-04-15 09:15 | 63.73031 | 20.40615 | 3057 ft | 235 kts | 138° |
| 2026-04-15 09:15 | 63.71747 | 20.43143 | 3692 ft | 252 kts | 138° |
| 2026-04-15 09:15 | 63.70292 | 20.45381 | 4616 ft | 258 kts | 159° |
| 2026-04-15 09:15 | 63.68523 | 20.46172 | 5594 ft | 261 kts | 176° |
| 2026-04-15 09:16 | 63.66707 | 20.46218 | 6631 ft | 262 kts | 180° |
| 2026-04-15 09:16 | 63.64879 | 20.46095 | 7594 ft | 264 kts | 181° |
| 2026-04-15 09:16 | 63.63030 | 20.45987 | 8489 ft | 268 kts | 181° |
| 2026-04-15 09:16 | 63.61156 | 20.45868 | 9394 ft | 271 kts | 181° |
| 2026-04-15 09:17 | 63.59260 | 20.45739 | 10284 ft | 275 kts | 181° |
| 2026-04-15 09:17 | 63.57312 | 20.45630 | 10851 ft | 290 kts | 181° |
| 2026-04-15 09:17 | 63.55221 | 20.45549 | 11174 ft | 309 kts | 180° |
| 2026-04-15 09:17 | 63.53038 | 20.45488 | 11810 ft | 317 kts | 180° |
| 2026-04-15 09:18 | 63.50815 | 20.45440 | 12548 ft | 322 kts | 180° |
| 2026-04-15 09:18 | 63.48562 | 20.45406 | 13305 ft | 326 kts | 180° |
| 2026-04-15 09:18 | 63.46282 | 20.45372 | 14051 ft | 330 kts | 180° |
| 2026-04-15 09:18 | 63.43971 | 20.45334 | 14730 ft | 334 kts | 180° |
| 2026-04-15 09:19 | 63.41634 | 20.45297 | 15381 ft | 338 kts | 180° |
| 2026-04-15 09:19 | 63.40070 | 20.45276 | 15805 ft | 341 kts | 180° |
| 2026-04-15 09:19 | 63.37686 | 20.45242 | 16442 ft | 345 kts | 180° |
| 2026-04-15 09:19 | 63.35278 | 20.45206 | 17084 ft | 348 kts | 180° |
| 2026-04-15 09:20 | 63.32840 | 20.45170 | 17736 ft | 352 kts | 180° |
| 2026-04-15 09:20 | 63.30376 | 20.45133 | 18390 ft | 356 kts | 180° |
| 2026-04-15 09:20 | 63.27886 | 20.45094 | 18985 ft | 360 kts | 181° |
| 2026-04-15 09:20 | 63.25389 | 20.44494 | 19564 ft | 363 kts | 192° |
| 2026-04-15 09:21 | 63.22960 | 20.42902 | 20167 ft | 366 kts | 199° |
| 2026-04-15 09:21 | 63.20548 | 20.41036 | 20771 ft | 369 kts | 199° |
| 2026-04-15 09:21 | 63.18112 | 20.39165 | 21360 ft | 372 kts | 199° |
| 2026-04-15 09:21 | 63.15656 | 20.37289 | 21937 ft | 375 kts | 199° |
| 2026-04-15 09:22 | 63.13177 | 20.35401 | 22519 ft | 378 kts | 199° |
| 2026-04-15 09:22 | 63.10677 | 20.33509 | 23090 ft | 381 kts | 199° |
| 2026-04-15 09:22 | 63.08156 | 20.31611 | 23676 ft | 384 kts | 199° |
| 2026-04-15 09:22 | 63.05610 | 20.29695 | 24196 ft | 388 kts | 199° |
| 2026-04-15 09:23 | 63.03046 | 20.27766 | 24629 ft | 392 kts | 199° |
| 2026-04-15 09:23 | 63.00452 | 20.25819 | 25055 ft | 396 kts | 199° |
| 2026-04-15 09:23 | 62.97834 | 20.23855 | 25476 ft | 400 kts | 199° |
| 2026-04-15 09:23 | 62.95193 | 20.21871 | 25890 ft | 403 kts | 199° |
| 2026-04-15 09:24 | 62.92525 | 20.19867 | 26296 ft | 407 kts | 199° |
| 2026-04-15 09:24 | 62.89828 | 20.17852 | 26684 ft | 411 kts | 199° |
| 2026-04-15 09:24 | 62.87107 | 20.15829 | 27070 ft | 415 kts | 199° |
| 2026-04-15 09:24 | 62.84359 | 20.13789 | 27459 ft | 419 kts | 199° |
| 2026-04-15 09:25 | 62.81590 | 20.11733 | 27843 ft | 422 kts | 200° |
| 2026-04-15 09:25 | 62.78797 | 20.09660 | 28221 ft | 426 kts | 200° |
| 2026-04-15 09:25 | 62.75981 | 20.07576 | 28593 ft | 429 kts | 200° |
| 2026-04-15 09:25 | 62.73145 | 20.05479 | 28963 ft | 432 kts | 200° |
| 2026-04-15 09:26 | 62.70283 | 20.03364 | 29325 ft | 436 kts | 200° |
| 2026-04-15 09:26 | 62.67401 | 20.01241 | 29678 ft | 439 kts | 200° |
| 2026-04-15 09:26 | 62.64532 | 19.99133 | 30043 ft | 443 kts | 200° |
| 2026-04-15 09:26 | 62.61603 | 19.96989 | 30387 ft | 446 kts | 200° |
| 2026-04-15 09:27 | 62.58660 | 19.94845 | 30774 ft | 447 kts | 200° |
| 2026-04-15 09:27 | 62.55708 | 19.92703 | 31131 ft | 448 kts | 200° |
| 2026-04-15 09:27 | 62.52743 | 19.90554 | 31485 ft | 450 kts | 200° |
| 2026-04-15 09:27 | 62.49771 | 19.88401 | 31833 ft | 451 kts | 200° |
| 2026-04-15 09:28 | 62.46791 | 19.86244 | 32251 ft | 451 kts | 200° |
| 2026-04-15 09:28 | 62.43828 | 19.84104 | 32755 ft | 448 kts | 200° |
| 2026-04-15 09:28 | 62.40874 | 19.81972 | 33259 ft | 446 kts | 200° |
| 2026-04-15 09:28 | 62.37937 | 19.79855 | 33761 ft | 444 kts | 200° |
| 2026-04-15 09:29 | 62.35013 | 19.77757 | 34268 ft | 442 kts | 200° |
| 2026-04-15 09:29 | 62.32105 | 19.75667 | 34705 ft | 440 kts | 200° |
| 2026-04-15 09:29 | 62.29205 | 19.73589 | 35096 ft | 439 kts | 200° |
| 2026-04-15 09:29 | 62.26306 | 19.71522 | 35448 ft | 438 kts | 200° |
| 2026-04-15 09:30 | 62.23414 | 19.69462 | 35777 ft | 438 kts | 200° |
| 2026-04-15 09:30 | 62.20520 | 19.67400 | 36097 ft | 438 kts | 199° |
| 2026-04-15 09:30 | 62.17624 | 19.65343 | 36359 ft | 439 kts | 199° |
| 2026-04-15 09:30 | 62.14727 | 19.63289 | 36423 ft | 437 kts | 199° |
| 2026-04-15 09:31 | 62.08966 | 19.59221 | 36427 ft | 435 kts | 199° |
| 2026-04-15 09:31 | 62.03217 | 19.55176 | 36424 ft | 435 kts | 199° |
| 2026-04-15 09:32 | 61.97470 | 19.51165 | 36421 ft | 434 kts | 199° |
| 2026-04-15 09:32 | 61.91727 | 19.47173 | 36427 ft | 434 kts | 199° |
| 2026-04-15 09:33 | 61.85980 | 19.43175 | 36427 ft | 435 kts | 199° |
| 2026-04-15 09:33 | 61.80230 | 19.39186 | 36432 ft | 435 kts | 199° |
| 2026-04-15 09:34 | 61.74476 | 19.35210 | 36426 ft | 435 kts | 199° |
| 2026-04-15 09:34 | 61.68718 | 19.31260 | 36431 ft | 435 kts | 199° |
| 2026-04-15 09:35 | 61.63000 | 19.27339 | 36431 ft | 435 kts | 199° |
| 2026-04-15 09:35 | 61.57237 | 19.23407 | 36029 ft | 437 kts | 199° |
| 2026-04-15 09:36 | 61.54320 | 19.21425 | 35282 ft | 441 kts | 199° |
| 2026-04-15 09:36 | 61.51421 | 19.19461 | 34889 ft | 436 kts | 199° |
| 2026-04-15 09:36 | 61.48549 | 19.17514 | 34406 ft | 433 kts | 199° |
| 2026-04-15 09:36 | 61.45691 | 19.15579 | 33876 ft | 430 kts | 198° |
| 2026-04-15 09:37 | 61.42861 | 19.13672 | 33405 ft | 425 kts | 198° |
| 2026-04-15 09:37 | 61.40058 | 19.11792 | 32937 ft | 421 kts | 198° |
| 2026-04-15 09:37 | 61.37285 | 19.09936 | 32475 ft | 416 kts | 198° |
| 2026-04-15 09:37 | 61.34541 | 19.08103 | 32022 ft | 412 kts | 198° |
| 2026-04-15 09:38 | 61.31823 | 19.06290 | 31573 ft | 408 kts | 198° |
| 2026-04-15 09:38 | 61.29128 | 19.04490 | 31138 ft | 404 kts | 198° |